sensor_id;sensor_type;location;lat;lon;timestamp;temperature;humidity
8872;DHT22;4472;52.092;9.820;2022-12-15T00:01:44;-7.60;99.90
8872;DHT22;4472;52.092;9.820;2022-12-15T00:04:49;-7.70;99.90
8872;DHT22;4472;52.092;9.820;2022-12-15T00:07:53;-7.70;99.90
8872;DHT22;4472;52.092;9.820;2022-12-15T00:11:01;-7.20;99.90
8872;DHT22;4472;52.092;9.820;2022-12-15T00:14:07;-7.70;99.90
8872;DHT22;4472;52.092;9.820;2022-12-15T00:17:12;-7.70;99.90
8872;DHT22;4472;52.092;9.820;2022-12-15T00:20:17;-7.70;99.90
8872;DHT22;4472;52.092;9.820;2022-12-15T00:23:21;-7.70;99.90
8872;DHT22;4472;52.092;9.820;2022-12-15T00:26:27;-7.60;99.90
8872;DHT22;4472;52.092;9.820;2022-12-15T00:29:32;-7.60;99.90
8872;DHT22;4472;52.092;9.820;2022-12-15T00:32:37;-7.60;99.90
8872;DHT22;4472;52.092;9.820;2022-12-15T00:35:41;-7.60;99.90
8872;DHT22;4472;52.092;9.820;2022-12-15T00:38:46;-7.60;99.90
8872;DHT22;4472;52.092;9.820;2022-12-15T00:41:34;-7.60;99.90
8872;DHT22;4472;52.092;9.820;2022-12-15T00:44:21;-7.60;99.90
8872;DHT22;4472;52.092;9.820;2022-12-15T00:47:09;-7.60;99.90
8872;DHT22;4472;52.092;9.820;2022-12-15T00:49:55;-7.60;99.90
8872;DHT22;4472;52.092;9.820;2022-12-15T00:53:00;-7.60;99.90
8872;DHT22;4472;52.092;9.820;2022-12-15T00:56:05;-7.60;99.90
8872;DHT22;4472;52.092;9.820;2022-12-15T00:59:11;-7.70;99.90
8872;DHT22;4472;52.092;9.820;2022-12-15T01:02:17;-7.70;99.90
8872;DHT22;4472;52.092;9.820;2022-12-15T01:05:21;-7.70;99.90
8872;DHT22;4472;52.092;9.820;2022-12-15T01:08:27;-7.70;99.90
8872;DHT22;4472;52.092;9.820;2022-12-15T01:11:31;-7.70;99.90
8872;DHT22;4472;52.092;9.820;2022-12-15T01:14:38;-7.60;99.90
8872;DHT22;4472;52.092;9.820;2022-12-15T01:17:42;-7.60;99.90
8872;DHT22;4472;52.092;9.820;2022-12-15T01:20:54;-7.70;99.90
8872;DHT22;4472;52.092;9.820;2022-12-15T01:23:41;-7.70;99.90
8872;DHT22;4472;52.092;9.820;2022-12-15T01:26:28;-7.80;99.90
8872;DHT22;4472;52.092;9.820;2022-12-15T01:29:15;-7.80;99.90
8872;DHT22;4472;52.092;9.820;2022-12-15T01:32:04;-7.80;99.90
8872;DHT22;4472;52.092;9.820;2022-12-15T01:34:54;-7.80;99.90
8872;DHT22;4472;52.092;9.820;2022-12-15T01:37:41;-7.90;99.90
8872;DHT22;4472;52.092;9.820;2022-12-15T01:40:29;-7.90;99.90
8872;DHT22;4472;52.092;9.820;2022-12-15T01:43:33;-7.90;99.90
8872;DHT22;4472;52.092;9.820;2022-12-15T01:46:22;-7.90;99.90
8872;DHT22;4472;52.092;9.820;2022-12-15T01:49:15;-8.00;99.90
8872;DHT22;4472;52.092;9.820;2022-12-15T01:52:05;-8.00;99.90
8872;DHT22;4472;52.092;9.820;2022-12-15T01:54:54;-8.00;99.90
8872;DHT22;4472;52.092;9.820;2022-12-15T01:57:43;-7.60;99.90
8872;DHT22;4472;52.092;9.820;2022-12-15T02:00:31;-8.10;99.90
8872;DHT22;4472;52.092;9.820;2022-12-15T02:03:18;-8.10;99.90
8872;DHT22;4472;52.092;9.820;2022-12-15T02:06:07;-8.10;99.90
8872;DHT22;4472;52.092;9.820;2022-12-15T02:08:57;-8.00;99.90
8872;DHT22;4472;52.092;9.820;2022-12-15T02:11:58;-8.00;99.90
8872;DHT22;4472;52.092;9.820;2022-12-15T02:14:58;-8.00;99.90
8872;DHT22;4472;52.092;9.820;2022-12-15T02:17:56;-8.00;99.90
8872;DHT22;4472;52.092;9.820;2022-12-15T02:20:52;-8.00;99.90
8872;DHT22;4472;52.092;9.820;2022-12-15T02:27:21;-7.90;99.90
8872;DHT22;4472;52.092;9.820;2022-12-15T02:34:05;-7.90;99.90
8872;DHT22;4472;52.092;9.820;2022-12-15T02:36:57;-8.00;99.90
8872;DHT22;4472;52.092;9.820;2022-12-15T02:39:45;-8.00;99.90
8872;DHT22;4472;52.092;9.820;2022-12-15T02:42:34;-8.00;99.90
8872;DHT22;4472;52.092;9.820;2022-12-15T02:45:32;-8.00;99.90
8872;DHT22;4472;52.092;9.820;2022-12-15T02:48:25;-8.00;99.90
8872;DHT22;4472;52.092;9.820;2022-12-15T02:51:29;-8.00;99.90
8872;DHT22;4472;52.092;9.820;2022-12-15T02:54:30;-7.90;99.90
8872;DHT22;4472;52.092;9.820;2022-12-15T02:57:25;-8.00;99.90
8872;DHT22;4472;52.092;9.820;2022-12-15T03:00:16;-8.00;99.90
8872;DHT22;4472;52.092;9.820;2022-12-15T03:03:03;-8.00;99.90
8872;DHT22;4472;52.092;9.820;2022-12-15T03:05:51;-8.10;99.90
8872;DHT22;4472;52.092;9.820;2022-12-15T03:08:40;-8.00;99.90
8872;DHT22;4472;52.092;9.820;2022-12-15T03:11:28;-8.10;99.90
8872;DHT22;4472;52.092;9.820;2022-12-15T03:14:15;-8.00;99.90
8872;DHT22;4472;52.092;9.820;2022-12-15T03:17:02;-8.00;99.90
8872;DHT22;4472;52.092;9.820;2022-12-15T03:19:52;-8.00;99.90
8872;DHT22;4472;52.092;9.820;2022-12-15T03:22:39;-7.90;99.90
8872;DHT22;4472;52.092;9.820;2022-12-15T03:25:28;-7.80;99.90
8872;DHT22;4472;52.092;9.820;2022-12-15T03:28:15;-7.70;99.90
8872;DHT22;4472;52.092;9.820;2022-12-15T03:31:02;-7.70;99.90
8872;DHT22;4472;52.092;9.820;2022-12-15T03:33:50;-7.70;99.90
8872;DHT22;4472;52.092;9.820;2022-12-15T03:36:37;-7.60;99.90
8872;DHT22;4472;52.092;9.820;2022-12-15T03:39:24;-7.60;99.90
8872;DHT22;4472;52.092;9.820;2022-12-15T03:42:12;-7.60;99.90
8872;DHT22;4472;52.092;9.820;2022-12-15T03:45:30;-7.60;99.90
8872;DHT22;4472;52.092;9.820;2022-12-15T03:48:17;-7.60;99.90
8872;DHT22;4472;52.092;9.820;2022-12-15T03:51:04;-7.60;99.90
8872;DHT22;4472;52.092;9.820;2022-12-15T03:53:52;-7.60;99.90
8872;DHT22;4472;52.092;9.820;2022-12-15T03:56:39;-7.60;99.90
8872;DHT22;4472;52.092;9.820;2022-12-15T03:59:27;-7.50;99.90
8872;DHT22;4472;52.092;9.820;2022-12-15T04:02:15;-7.40;99.90
8872;DHT22;4472;52.092;9.820;2022-12-15T04:05:02;-7.40;99.90
8872;DHT22;4472;52.092;9.820;2022-12-15T04:07:49;-7.40;99.90
8872;DHT22;4472;52.092;9.820;2022-12-15T04:10:36;-7.30;99.90
8872;DHT22;4472;52.092;9.820;2022-12-15T04:13:24;-7.40;99.90
8872;DHT22;4472;52.092;9.820;2022-12-15T04:16:12;-7.40;99.90
8872;DHT22;4472;52.092;9.820;2022-12-15T04:18:59;-7.40;99.90
8872;DHT22;4472;52.092;9.820;2022-12-15T04:22:04;-7.40;99.90
8872;DHT22;4472;52.092;9.820;2022-12-15T04:24:51;-7.40;99.90
8872;DHT22;4472;52.092;9.820;2022-12-15T04:27:56;-7.40;99.90
8872;DHT22;4472;52.092;9.820;2022-12-15T04:31:05;-7.40;99.90
8872;DHT22;4472;52.092;9.820;2022-12-15T04:34:15;-7.40;99.90
8872;DHT22;4472;52.092;9.820;2022-12-15T04:37:20;-7.40;99.90
8872;DHT22;4472;52.092;9.820;2022-12-15T04:40:25;-7.40;99.90
8872;DHT22;4472;52.092;9.820;2022-12-15T04:43:29;-7.40;99.90
8872;DHT22;4472;52.092;9.820;2022-12-15T04:46:34;-7.30;99.90
8872;DHT22;4472;52.092;9.820;2022-12-15T04:49:40;-7.30;99.90
8872;DHT22;4472;52.092;9.820;2022-12-15T04:52:44;-7.40;99.90
8872;DHT22;4472;52.092;9.820;2022-12-15T04:55:49;-7.40;99.90
8872;DHT22;4472;52.092;9.820;2022-12-15T04:58:53;-7.50;99.90
8872;DHT22;4472;52.092;9.820;2022-12-15T05:01:58;-7.50;99.90
8872;DHT22;4472;52.092;9.820;2022-12-15T05:05:05;-7.50;99.90
8872;DHT22;4472;52.092;9.820;2022-12-15T05:08:10;-7.50;99.90
8872;DHT22;4472;52.092;9.820;2022-12-15T05:11:15;-7.50;99.90
8872;DHT22;4472;52.092;9.820;2022-12-15T05:14:19;-7.50;99.90
8872;DHT22;4472;52.092;9.820;2022-12-15T05:17:24;-7.50;99.90
8872;DHT22;4472;52.092;9.820;2022-12-15T05:20:30;-7.50;99.90
8872;DHT22;4472;52.092;9.820;2022-12-15T05:23:35;-7.60;99.90
8872;DHT22;4472;52.092;9.820;2022-12-15T05:26:39;-7.60;99.90
8872;DHT22;4472;52.092;9.820;2022-12-15T05:29:44;-7.60;99.90
8872;DHT22;4472;52.092;9.820;2022-12-15T05:32:49;-7.60;99.90
8872;DHT22;4472;52.092;9.820;2022-12-15T05:35:37;-7.60;99.90
8872;DHT22;4472;52.092;9.820;2022-12-15T05:38:24;-7.70;99.90
8872;DHT22;4472;52.092;9.820;2022-12-15T05:41:11;-7.70;99.90
8872;DHT22;4472;52.092;9.820;2022-12-15T05:43:59;-7.60;99.90
8872;DHT22;4472;52.092;9.820;2022-12-15T05:46:47;-7.60;99.90
8872;DHT22;4472;52.092;9.820;2022-12-15T05:49:34;-7.60;99.90
8872;DHT22;4472;52.092;9.820;2022-12-15T05:52:22;-7.60;99.90
8872;DHT22;4472;52.092;9.820;2022-12-15T05:55:10;-7.60;99.90
8872;DHT22;4472;52.092;9.820;2022-12-15T05:57:57;-7.60;99.90
8872;DHT22;4472;52.092;9.820;2022-12-15T06:00:44;-7.60;99.90
8872;DHT22;4472;52.092;9.820;2022-12-15T06:03:32;-7.60;99.90
8872;DHT22;4472;52.092;9.820;2022-12-15T06:06:20;-7.60;99.90
8872;DHT22;4472;52.092;9.820;2022-12-15T06:09:09;-7.60;99.90
8872;DHT22;4472;52.092;9.820;2022-12-15T06:11:56;-7.50;99.90
8872;DHT22;4472;52.092;9.820;2022-12-15T06:14:43;-7.40;99.90
8872;DHT22;4472;52.092;9.820;2022-12-15T06:17:31;-7.40;99.90
8872;DHT22;4472;52.092;9.820;2022-12-15T06:20:18;-7.40;99.90
8872;DHT22;4472;52.092;9.820;2022-12-15T06:23:05;-7.30;99.90
8872;DHT22;4472;52.092;9.820;2022-12-15T06:25:55;-7.20;99.90
8872;DHT22;4472;52.092;9.820;2022-12-15T06:28:42;-7.20;99.90
8872;DHT22;4472;52.092;9.820;2022-12-15T06:31:30;-7.20;99.90
8872;DHT22;4472;52.092;9.820;2022-12-15T06:34:18;-7.20;99.90
8872;DHT22;4472;52.092;9.820;2022-12-15T06:37:06;-7.20;99.90
8872;DHT22;4472;52.092;9.820;2022-12-15T06:39:53;-7.10;99.90
8872;DHT22;4472;52.092;9.820;2022-12-15T06:42:41;-7.20;99.90
8872;DHT22;4472;52.092;9.820;2022-12-15T06:45:29;-7.10;99.90
8872;DHT22;4472;52.092;9.820;2022-12-15T06:48:16;-7.10;99.90
8872;DHT22;4472;52.092;9.820;2022-12-15T06:51:05;-7.10;99.90
8872;DHT22;4472;52.092;9.820;2022-12-15T06:53:52;-7.10;99.90
8872;DHT22;4472;52.092;9.820;2022-12-15T06:56:40;-7.10;99.90
8872;DHT22;4472;52.092;9.820;2022-12-15T06:59:29;-7.10;99.90
8872;DHT22;4472;52.092;9.820;2022-12-15T07:02:16;-7.00;99.90
8872;DHT22;4472;52.092;9.820;2022-12-15T07:05:04;-7.00;99.90
8872;DHT22;4472;52.092;9.820;2022-12-15T07:07:51;-7.00;99.90
8872;DHT22;4472;52.092;9.820;2022-12-15T07:10:39;-7.00;99.90
8872;DHT22;4472;52.092;9.820;2022-12-15T07:13:26;-6.90;99.90
8872;DHT22;4472;52.092;9.820;2022-12-15T07:16:14;-6.90;99.90
8872;DHT22;4472;52.092;9.820;2022-12-15T07:19:02;-6.90;99.90
8872;DHT22;4472;52.092;9.820;2022-12-15T07:21:49;-6.90;99.90
8872;DHT22;4472;52.092;9.820;2022-12-15T07:24:36;-6.90;99.90
8872;DHT22;4472;52.092;9.820;2022-12-15T07:27:23;-6.90;99.90
8872;DHT22;4472;52.092;9.820;2022-12-15T07:30:11;-6.80;99.90
8872;DHT22;4472;52.092;9.820;2022-12-15T07:33:01;-6.80;99.90
8872;DHT22;4472;52.092;9.820;2022-12-15T07:35:53;-6.70;99.90
8872;DHT22;4472;52.092;9.820;2022-12-15T07:38:40;-6.70;99.90
8872;DHT22;4472;52.092;9.820;2022-12-15T07:41:27;-6.70;99.90
8872;DHT22;4472;52.092;9.820;2022-12-15T07:44:15;-6.60;99.90
8872;DHT22;4472;52.092;9.820;2022-12-15T07:47:02;-6.50;99.90
8872;DHT22;4472;52.092;9.820;2022-12-15T07:49:50;-6.50;99.90
8872;DHT22;4472;52.092;9.820;2022-12-15T07:52:38;-6.50;99.90
8872;DHT22;4472;52.092;9.820;2022-12-15T07:55:25;-6.40;99.90
8872;DHT22;4472;52.092;9.820;2022-12-15T07:58:12;-6.40;99.90
8872;DHT22;4472;52.092;9.820;2022-12-15T08:01:00;-6.30;99.90
8872;DHT22;4472;52.092;9.820;2022-12-15T08:03:48;-6.20;99.90
8872;DHT22;4472;52.092;9.820;2022-12-15T08:06:36;-6.20;99.90
8872;DHT22;4472;52.092;9.820;2022-12-15T08:09:24;-6.10;99.90
8872;DHT22;4472;52.092;9.820;2022-12-15T08:12:11;-6.10;99.90
8872;DHT22;4472;52.092;9.820;2022-12-15T08:14:58;-6.10;99.90
8872;DHT22;4472;52.092;9.820;2022-12-15T08:17:45;-6.00;99.90
8872;DHT22;4472;52.092;9.820;2022-12-15T08:20:33;-6.00;99.90
8872;DHT22;4472;52.092;9.820;2022-12-15T08:23:22;-6.00;99.90
8872;DHT22;4472;52.092;9.820;2022-12-15T08:26:11;-5.90;99.90
8872;DHT22;4472;52.092;9.820;2022-12-15T08:29:00;-5.90;99.90
8872;DHT22;4472;52.092;9.820;2022-12-15T08:31:49;-5.80;99.90
8872;DHT22;4472;52.092;9.820;2022-12-15T08:34:37;-5.80;99.90
8872;DHT22;4472;52.092;9.820;2022-12-15T08:37:24;-5.70;99.90
8872;DHT22;4472;52.092;9.820;2022-12-15T08:40:13;-5.60;99.90
8872;DHT22;4472;52.092;9.820;2022-12-15T08:43:00;-4.00;99.90
8872;DHT22;4472;52.092;9.820;2022-12-15T08:45:47;-5.50;99.90
8872;DHT22;4472;52.092;9.820;2022-12-15T08:48:35;-5.40;99.90
8872;DHT22;4472;52.092;9.820;2022-12-15T08:51:24;-5.40;99.90
8872;DHT22;4472;52.092;9.820;2022-12-15T08:54:11;-5.30;99.90
8872;DHT22;4472;52.092;9.820;2022-12-15T08:57:00;-5.20;99.90
8872;DHT22;4472;52.092;9.820;2022-12-15T08:59:47;-5.20;99.90
8872;DHT22;4472;52.092;9.820;2022-12-15T09:02:34;-5.00;99.90
8872;DHT22;4472;52.092;9.820;2022-12-15T09:05:21;-4.90;99.90
8872;DHT22;4472;52.092;9.820;2022-12-15T09:08:08;-4.80;99.90
8872;DHT22;4472;52.092;9.820;2022-12-15T09:10:56;-4.70;99.90
8872;DHT22;4472;52.092;9.820;2022-12-15T09:13:45;-4.60;99.90
8872;DHT22;4472;52.092;9.820;2022-12-15T09:16:32;-4.50;99.90
8872;DHT22;4472;52.092;9.820;2022-12-15T09:19:19;-4.40;99.90
8872;DHT22;4472;52.092;9.820;2022-12-15T09:22:06;-4.30;99.90
8872;DHT22;4472;52.092;9.820;2022-12-15T09:24:54;-4.30;99.90
8872;DHT22;4472;52.092;9.820;2022-12-15T09:27:41;-4.20;99.90
8872;DHT22;4472;52.092;9.820;2022-12-15T09:30:29;-4.10;99.90
8872;DHT22;4472;52.092;9.820;2022-12-15T09:33:16;-4.10;99.90
8872;DHT22;4472;52.092;9.820;2022-12-15T09:36:06;-4.00;99.90
8872;DHT22;4472;52.092;9.820;2022-12-15T09:38:53;-4.00;99.90
8872;DHT22;4472;52.092;9.820;2022-12-15T09:41:40;-3.90;99.90
8872;DHT22;4472;52.092;9.820;2022-12-15T09:44:30;-3.80;99.90
8872;DHT22;4472;52.092;9.820;2022-12-15T09:47:27;-3.80;99.90
8872;DHT22;4472;52.092;9.820;2022-12-15T09:50:17;-3.70;99.90
8872;DHT22;4472;52.092;9.820;2022-12-15T09:53:09;-3.60;99.90
8872;DHT22;4472;52.092;9.820;2022-12-15T09:56:03;-3.50;99.90
8872;DHT22;4472;52.092;9.820;2022-12-15T09:58:58;-3.40;99.90
8872;DHT22;4472;52.092;9.820;2022-12-15T10:01:55;-3.30;99.90
8872;DHT22;4472;52.092;9.820;2022-12-15T10:04:55;-3.30;99.90
8872;DHT22;4472;52.092;9.820;2022-12-15T10:07:44;-3.20;99.90
8872;DHT22;4472;52.092;9.820;2022-12-15T10:10:37;-3.10;99.90
8872;DHT22;4472;52.092;9.820;2022-12-15T10:13:30;-3.00;99.90
8872;DHT22;4472;52.092;9.820;2022-12-15T10:16:25;-3.00;99.90
8872;DHT22;4472;52.092;9.820;2022-12-15T10:19:21;-2.90;99.90
8872;DHT22;4472;52.092;9.820;2022-12-15T10:22:12;-2.80;99.90
8872;DHT22;4472;52.092;9.820;2022-12-15T10:25:01;-2.80;99.90
8872;DHT22;4472;52.092;9.820;2022-12-15T10:28:14;-2.70;99.90
8872;DHT22;4472;52.092;9.820;2022-12-15T10:31:12;-2.60;99.90
8872;DHT22;4472;52.092;9.820;2022-12-15T10:34:09;-2.50;99.90
8872;DHT22;4472;52.092;9.820;2022-12-15T10:36:57;-2.30;99.90
8872;DHT22;4472;52.092;9.820;2022-12-15T10:39:47;-2.20;99.90
8872;DHT22;4472;52.092;9.820;2022-12-15T10:42:44;-2.10;99.90
8872;DHT22;4472;52.092;9.820;2022-12-15T10:45:36;-2.00;99.90
8872;DHT22;4472;52.092;9.820;2022-12-15T10:48:24;-1.90;99.90
8872;DHT22;4472;52.092;9.820;2022-12-15T10:51:17;-1.80;99.90
8872;DHT22;4472;52.092;9.820;2022-12-15T10:54:11;-1.70;99.90
8872;DHT22;4472;52.092;9.820;2022-12-15T10:57:14;-1.60;99.90
8872;DHT22;4472;52.092;9.820;2022-12-15T11:00:24;-1.50;99.90
8872;DHT22;4472;52.092;9.820;2022-12-15T11:03:21;-1.40;99.90
8872;DHT22;4472;52.092;9.820;2022-12-15T11:06:14;-1.20;99.90
8872;DHT22;4472;52.092;9.820;2022-12-15T11:09:23;-1.10;99.90
8872;DHT22;4472;52.092;9.820;2022-12-15T11:12:18;-1.00;99.90
8872;DHT22;4472;52.092;9.820;2022-12-15T11:15:40;-0.90;99.90
8872;DHT22;4472;52.092;9.820;2022-12-15T11:18:35;-0.80;99.90
8872;DHT22;4472;52.092;9.820;2022-12-15T11:21:26;-0.70;99.90
8872;DHT22;4472;52.092;9.820;2022-12-15T11:24:21;-0.60;99.90
8872;DHT22;4472;52.092;9.820;2022-12-15T11:27:22;-0.50;99.90
8872;DHT22;4472;52.092;9.820;2022-12-15T11:30:14;-0.50;99.90
8872;DHT22;4472;52.092;9.820;2022-12-15T11:33:01;-0.40;99.90
8872;DHT22;4472;52.092;9.820;2022-12-15T11:36:01;-0.30;99.90
8872;DHT22;4472;52.092;9.820;2022-12-15T11:38:59;-0.30;99.90
8872;DHT22;4472;52.092;9.820;2022-12-15T11:41:54;-0.20;99.90
8872;DHT22;4472;52.092;9.820;2022-12-15T11:44:50;-0.10;99.90
8872;DHT22;4472;52.092;9.820;2022-12-15T11:47:45;-0.10;99.90
8872;DHT22;4472;52.092;9.820;2022-12-15T11:50:39;0.00;99.90
8872;DHT22;4472;52.092;9.820;2022-12-15T11:53:44;0.00;99.90
8872;DHT22;4472;52.092;9.820;2022-12-15T11:56:38;0.10;99.90
8872;DHT22;4472;52.092;9.820;2022-12-15T11:59:47;0.10;99.90
8872;DHT22;4472;52.092;9.820;2022-12-15T12:02:56;0.20;99.90
8872;DHT22;4472;52.092;9.820;2022-12-15T12:05:57;0.20;99.90
8872;DHT22;4472;52.092;9.820;2022-12-15T12:08:54;0.20;99.90
8872;DHT22;4472;52.092;9.820;2022-12-15T12:11:54;0.20;99.90
8872;DHT22;4472;52.092;9.820;2022-12-15T12:15:06;0.20;99.90
8872;DHT22;4472;52.092;9.820;2022-12-15T12:18:03;0.20;99.90
8872;DHT22;4472;52.092;9.820;2022-12-15T12:20:57;0.30;99.90
8872;DHT22;4472;52.092;9.820;2022-12-15T12:23:50;0.30;99.90
8872;DHT22;4472;52.092;9.820;2022-12-15T12:26:42;0.30;99.90
8872;DHT22;4472;52.092;9.820;2022-12-15T12:29:32;0.30;99.90
8872;DHT22;4472;52.092;9.820;2022-12-15T12:32:29;0.20;99.90
8872;DHT22;4472;52.092;9.820;2022-12-15T12:35:24;0.30;99.90
8872;DHT22;4472;52.092;9.820;2022-12-15T12:38:13;0.40;99.90
8872;DHT22;4472;52.092;9.820;2022-12-15T12:41:08;0.40;99.90
8872;DHT22;4472;52.092;9.820;2022-12-15T12:44:00;0.40;99.90
8872;DHT22;4472;52.092;9.820;2022-12-15T12:46:52;0.50;99.90
8872;DHT22;4472;52.092;9.820;2022-12-15T12:49:44;0.50;99.90
8872;DHT22;4472;52.092;9.820;2022-12-15T12:52:33;0.60;99.90
8872;DHT22;4472;52.092;9.820;2022-12-15T12:55:24;0.60;99.90
8872;DHT22;4472;52.092;9.820;2022-12-15T12:58:32;0.70;99.90
8872;DHT22;4472;52.092;9.820;2022-12-15T13:01:25;0.70;99.90
8872;DHT22;4472;52.092;9.820;2022-12-15T13:04:37;0.80;99.90
8872;DHT22;4472;52.092;9.820;2022-12-15T13:07:31;0.80;99.90
8872;DHT22;4472;52.092;9.820;2022-12-15T13:10:21;0.80;99.90
8872;DHT22;4472;52.092;9.820;2022-12-15T13:13:20;0.80;99.90
8872;DHT22;4472;52.092;9.820;2022-12-15T13:16:23;0.80;99.90
8872;DHT22;4472;52.092;9.820;2022-12-15T13:19:11;0.70;99.90
8872;DHT22;4472;52.092;9.820;2022-12-15T13:21:59;0.80;99.90
8872;DHT22;4472;52.092;9.820;2022-12-15T13:24:50;0.80;99.90
8872;DHT22;4472;52.092;9.820;2022-12-15T13:27:38;0.70;99.90
8872;DHT22;4472;52.092;9.820;2022-12-15T13:30:26;0.70;99.90
8872;DHT22;4472;52.092;9.820;2022-12-15T13:33:16;0.70;99.90
8872;DHT22;4472;52.092;9.820;2022-12-15T13:36:04;0.70;99.90
8872;DHT22;4472;52.092;9.820;2022-12-15T13:38:53;0.60;99.90
8872;DHT22;4472;52.092;9.820;2022-12-15T13:41:43;0.60;99.90
8872;DHT22;4472;52.092;9.820;2022-12-15T13:44:31;0.60;99.90
8872;DHT22;4472;52.092;9.820;2022-12-15T13:47:23;0.60;99.90
8872;DHT22;4472;52.092;9.820;2022-12-15T13:50:14;0.60;99.90
8872;DHT22;4472;52.092;9.820;2022-12-15T13:53:09;0.60;99.90
8872;DHT22;4472;52.092;9.820;2022-12-15T13:56:04;0.60;99.90
8872;DHT22;4472;52.092;9.820;2022-12-15T13:58:58;0.50;99.90
8872;DHT22;4472;52.092;9.820;2022-12-15T14:01:51;0.50;99.90
8872;DHT22;4472;52.092;9.820;2022-12-15T14:04:38;0.50;99.90
8872;DHT22;4472;52.092;9.820;2022-12-15T14:07:26;0.50;99.90
8872;DHT22;4472;52.092;9.820;2022-12-15T14:10:19;0.40;99.90
8872;DHT22;4472;52.092;9.820;2022-12-15T14:13:11;0.40;99.90
8872;DHT22;4472;52.092;9.820;2022-12-15T14:16:04;0.30;99.90
8872;DHT22;4472;52.092;9.820;2022-12-15T14:19:10;0.30;99.90
8872;DHT22;4472;52.092;9.820;2022-12-15T14:21:57;0.20;99.90
8872;DHT22;4472;52.092;9.820;2022-12-15T14:24:45;0.20;99.90
8872;DHT22;4472;52.092;9.820;2022-12-15T14:27:33;0.10;99.90
8872;DHT22;4472;52.092;9.820;2022-12-15T14:30:22;0.00;99.90
8872;DHT22;4472;52.092;9.820;2022-12-15T14:33:14;-0.10;99.90
8872;DHT22;4472;52.092;9.820;2022-12-15T14:36:05;-0.20;99.90
8872;DHT22;4472;52.092;9.820;2022-12-15T14:38:56;-0.30;99.90
8872;DHT22;4472;52.092;9.820;2022-12-15T14:41:46;-0.40;99.90
8872;DHT22;4472;52.092;9.820;2022-12-15T14:44:36;-0.50;99.90
8872;DHT22;4472;52.092;9.820;2022-12-15T14:47:25;-0.60;99.90
8872;DHT22;4472;52.092;9.820;2022-12-15T14:50:15;-0.60;99.90
8872;DHT22;4472;52.092;9.820;2022-12-15T14:53:10;-0.70;99.90
8872;DHT22;4472;52.092;9.820;2022-12-15T14:56:21;-0.80;99.90
8872;DHT22;4472;52.092;9.820;2022-12-15T14:59:17;-0.90;99.90
8872;DHT22;4472;52.092;9.820;2022-12-15T15:02:13;-1.00;99.90
8872;DHT22;4472;52.092;9.820;2022-12-15T15:05:05;-1.10;99.90
8872;DHT22;4472;52.092;9.820;2022-12-15T15:08:13;-1.20;99.90
8872;DHT22;4472;52.092;9.820;2022-12-15T15:11:03;-1.30;99.90
8872;DHT22;4472;52.092;9.820;2022-12-15T15:14:07;-1.40;99.90
8872;DHT22;4472;52.092;9.820;2022-12-15T15:17:01;-1.40;99.90
8872;DHT22;4472;52.092;9.820;2022-12-15T15:19:52;-1.50;99.90
8872;DHT22;4472;52.092;9.820;2022-12-15T15:22:40;-1.50;99.90
8872;DHT22;4472;52.092;9.820;2022-12-15T15:25:35;-1.60;99.90
8872;DHT22;4472;52.092;9.820;2022-12-15T15:28:25;-1.70;99.90
8872;DHT22;4472;52.092;9.820;2022-12-15T15:31:27;-1.80;99.90
8872;DHT22;4472;52.092;9.820;2022-12-15T15:34:15;-1.90;99.90
8872;DHT22;4472;52.092;9.820;2022-12-15T15:37:02;-1.90;99.90
8872;DHT22;4472;52.092;9.820;2022-12-15T15:39:52;-2.00;99.90
8872;DHT22;4472;52.092;9.820;2022-12-15T15:42:41;-2.10;99.90
8872;DHT22;4472;52.092;9.820;2022-12-15T15:45:30;-2.20;99.90
8872;DHT22;4472;52.092;9.820;2022-12-15T15:48:21;-2.20;99.90
8872;DHT22;4472;52.092;9.820;2022-12-15T15:51:10;-2.20;99.90
8872;DHT22;4472;52.092;9.820;2022-12-15T15:53:59;-2.30;99.90
8872;DHT22;4472;52.092;9.820;2022-12-15T15:56:47;-2.30;99.90
8872;DHT22;4472;52.092;9.820;2022-12-15T15:59:35;-2.30;99.90
8872;DHT22;4472;52.092;9.820;2022-12-15T16:02:26;-2.40;99.90
8872;DHT22;4472;52.092;9.820;2022-12-15T16:05:14;-2.40;99.90
8872;DHT22;4472;52.092;9.820;2022-12-15T16:08:02;-2.50;99.90
8872;DHT22;4472;52.092;9.820;2022-12-15T16:10:49;-2.50;99.90
8872;DHT22;4472;52.092;9.820;2022-12-15T16:13:37;-2.60;99.90
8872;DHT22;4472;52.092;9.820;2022-12-15T16:16:30;-2.60;99.90
8872;DHT22;4472;52.092;9.820;2022-12-15T16:19:17;-2.60;99.90
8872;DHT22;4472;52.092;9.820;2022-12-15T16:22:05;-2.70;99.90
8872;DHT22;4472;52.092;9.820;2022-12-15T16:24:52;-2.70;99.90
8872;DHT22;4472;52.092;9.820;2022-12-15T16:27:39;-2.70;99.90
8872;DHT22;4472;52.092;9.820;2022-12-15T16:30:30;-2.80;99.90
8872;DHT22;4472;52.092;9.820;2022-12-15T16:33:19;-2.80;99.90
8872;DHT22;4472;52.092;9.820;2022-12-15T16:36:11;-2.80;99.90
8872;DHT22;4472;52.092;9.820;2022-12-15T16:38:59;-2.80;99.90
8872;DHT22;4472;52.092;9.820;2022-12-15T16:41:46;-2.90;99.90
8872;DHT22;4472;52.092;9.820;2022-12-15T16:44:33;-2.90;99.90
8872;DHT22;4472;52.092;9.820;2022-12-15T16:47:21;-2.90;99.90
8872;DHT22;4472;52.092;9.820;2022-12-15T16:50:11;-2.90;99.90
8872;DHT22;4472;52.092;9.820;2022-12-15T16:53:00;-3.00;99.90
8872;DHT22;4472;52.092;9.820;2022-12-15T16:55:49;-3.00;99.90
8872;DHT22;4472;52.092;9.820;2022-12-15T16:58:37;-3.00;99.90
8872;DHT22;4472;52.092;9.820;2022-12-15T17:01:25;-3.10;99.90
8872;DHT22;4472;52.092;9.820;2022-12-15T17:04:12;-3.10;99.90
8872;DHT22;4472;52.092;9.820;2022-12-15T17:07:02;-3.10;99.90
8872;DHT22;4472;52.092;9.820;2022-12-15T17:09:50;-3.10;99.90
8872;DHT22;4472;52.092;9.820;2022-12-15T17:12:37;-3.10;99.90
8872;DHT22;4472;52.092;9.820;2022-12-15T17:15:26;-3.10;99.90
8872;DHT22;4472;52.092;9.820;2022-12-15T17:18:13;-3.10;99.90
8872;DHT22;4472;52.092;9.820;2022-12-15T17:21:02;-3.10;99.90
8872;DHT22;4472;52.092;9.820;2022-12-15T17:23:52;-3.10;99.90
8872;DHT22;4472;52.092;9.820;2022-12-15T17:26:41;-3.10;99.90
8872;DHT22;4472;52.092;9.820;2022-12-15T17:29:29;-3.10;99.90
8872;DHT22;4472;52.092;9.820;2022-12-15T17:32:16;-3.10;99.90
8872;DHT22;4472;52.092;9.820;2022-12-15T17:35:04;-3.10;99.90
8872;DHT22;4472;52.092;9.820;2022-12-15T17:37:52;-3.10;99.90
8872;DHT22;4472;52.092;9.820;2022-12-15T17:40:41;-2.50;99.90
8872;DHT22;4472;52.092;9.820;2022-12-15T17:43:28;-3.20;99.90
8872;DHT22;4472;52.092;9.820;2022-12-15T17:46:16;-3.20;99.90
8872;DHT22;4472;52.092;9.820;2022-12-15T17:49:03;-3.20;99.90
8872;DHT22;4472;52.092;9.820;2022-12-15T17:51:50;-3.20;99.90
8872;DHT22;4472;52.092;9.820;2022-12-15T17:54:39;-3.20;99.90
8872;DHT22;4472;52.092;9.820;2022-12-15T17:57:27;-3.30;99.90
8872;DHT22;4472;52.092;9.820;2022-12-15T18:00:20;-3.60;99.90
8872;DHT22;4472;52.092;9.820;2022-12-15T18:03:08;-3.30;99.90
8872;DHT22;4472;52.092;9.820;2022-12-15T18:05:55;-3.30;99.90
8872;DHT22;4472;52.092;9.820;2022-12-15T18:08:43;-3.30;99.90
8872;DHT22;4472;52.092;9.820;2022-12-15T18:11:31;-3.30;99.90
8872;DHT22;4472;52.092;9.820;2022-12-15T18:14:20;-3.30;99.90
8872;DHT22;4472;52.092;9.820;2022-12-15T18:17:08;-3.30;99.90
8872;DHT22;4472;52.092;9.820;2022-12-15T18:19:55;-3.40;99.90
8872;DHT22;4472;52.092;9.820;2022-12-15T18:22:42;-3.40;99.90
8872;DHT22;4472;52.092;9.820;2022-12-15T18:25:29;-3.40;99.90
8872;DHT22;4472;52.092;9.820;2022-12-15T18:28:21;-3.40;99.90
8872;DHT22;4472;52.092;9.820;2022-12-15T18:31:18;-3.40;99.90
8872;DHT22;4472;52.092;9.820;2022-12-15T18:34:10;-3.40;99.90
8872;DHT22;4472;52.092;9.820;2022-12-15T18:36:57;-3.50;99.90
8872;DHT22;4472;52.092;9.820;2022-12-15T18:39:45;-3.50;99.90
8872;DHT22;4472;52.092;9.820;2022-12-15T18:42:32;-3.50;99.90
8872;DHT22;4472;52.092;9.820;2022-12-15T18:45:21;-3.50;99.90
8872;DHT22;4472;52.092;9.820;2022-12-15T18:48:16;-3.60;99.90
8872;DHT22;4472;52.092;9.820;2022-12-15T18:51:10;-3.50;99.90
8872;DHT22;4472;52.092;9.820;2022-12-15T18:54:00;-3.60;99.90
8872;DHT22;4472;52.092;9.820;2022-12-15T18:56:48;-3.70;99.90